• Join FlightAware (Why Join?)
  • Login
  • US Flag 
11:18PM EST


 

Airport Tracker/Info


-or-


 

Live Flight TrackerFlight Track Log ✈ DAL8956 ✈ 15-Jun-2013 ✈ KNIP - MUGM / NBW

Flight Track Log - Related Links

Times and Time Zones

All times are in EDT time to prevent confusion due to time zone crossing. See the DAL8956 flight status page for this flight to view local times or setup timezone preferences in your user account.

Time Position Orientation Groundspeed Altitude Reporting Facility
EDT Latitude Longitude Course Direction KTS MPH feet Rate Location/Type
09:59AM 30.2314 -81.6569 146° Southeast 188 216 800  Level Jacksonville Center
10:00AM 30.1892 -81.6236 146° Southeast 210 242 2,400 2,160 Climbing Jacksonville Center
10:01AM 30.1325 -81.5789 146° Southeast 258 297 5,000 2,520 Climbing Jacksonville Center
10:02AM 30.0731 -81.5078 134° Southeast 295 339 7,600 1,620 Climbing Jacksonville Center
10:03AM 30.0497 -81.4672 124° Southeast 312 359 7,700 420 Climbing Jacksonville Center
10:03AM 30.0347 -81.4361 119° Southeast 302 348 8,000 1,860 Climbing Jacksonville Center
10:04AM 30.0008 -81.3864 128° Southeast 307 353 9,600 2,040 Climbing Jacksonville Center
10:05AM 29.9475 -81.2986 125° Southeast 332 382 11,600 1,740 Climbing Jacksonville Center
10:06AM 29.8611 -81.2400 150° Southeast 349 402 13,100 1,620 Climbing Jacksonville Center
10:07AM 29.7500 -81.1989 162° South 369 425 14,900 900 Climbing Jacksonville Center
10:08AM 29.6386 -81.1483 158° South 410 472 14,900  Level Jacksonville Center
10:09AM 29.5294 -81.0953 157° South 424 488 14,900 840 Level Jacksonville Center
10:10AM 29.4097 -81.0356 157° South 433 498 16,600 1,620 Climbing Jacksonville Center
10:11AM 29.2900 -80.9972 164° South 441 507 18,200 1,680 Climbing Jacksonville Center
10:12AM 29.1661 -80.9497 161° South 462 532 20,000 2,460 Climbing Jacksonville Center
10:13AM 29.0467 -80.9069 163° South 455 524 23,200 2,640 Climbing Jacksonville Center
10:15AM 28.8897 -80.8556 164° South 423 487 26,700 1,980 Climbing Miami Center
10:16AM 28.7658 -80.8061 161° South 411 473 28,200 1,320 Climbing Miami Center
10:17AM 28.6625 -80.7739 165° South 426 490 29,400 1,080 Climbing Miami Center
10:18AM 28.5447 -80.7319 163° South 434 499 30,400 1,080 Climbing Miami Center
10:19AM 28.4144 -80.6850 162° South 446 513 31,600 960 Climbing Miami Center
10:20AM 28.3031 -80.6411 161° South 463 533 32,400 900 Climbing Miami Center
10:21AM 28.1767 -80.5992 164° South 463 533 33,400 780 Climbing Miami Center
10:22AM 28.0572 -80.5389 156° South 468 539 34,000 300 Climbing Miami Center
10:23AM 27.9597 -80.4392 138° Southeast 462 532 34,000  Level Miami Center
10:24AM 27.8392 -80.3253 140° Southeast 491 565 34,000  Level Miami Center
10:25AM 27.7331 -80.2233 140° Southeast 510 587 34,000  Level Miami Center
10:26AM 27.6250 -80.1194 140° Southeast 510 587 34,000 420 Level Miami Center
10:27AM 27.5186 -80.0181 140° Southeast 510 587 34,900 480 Climbing Miami Center
10:28AM 27.4122 -79.9169 140° Southeast 510 587 35,000  Climbing Miami Center
10:29AM 27.3119 -79.8161 138° Southeast 500 575 35,000  Level Miami Center
10:30AM 27.2075 -79.7178 140° Southeast 495 570 35,000  Level Miami Center
10:31AM 27.1028 -79.6169 139° Southeast 495 570 35,000 300 Level Miami Center
10:32AM 27.0106 -79.5286 140° Southeast 489 563 35,600 840 Climbing Miami Center
10:33AM 26.8956 -79.4211 140° Southeast 494 568 36,700 660 Climbing Miami Center
10:34AM 26.8133 -79.3425 140° Southeast 494 568 37,000 60 Climbing Miami Center
10:35AM 26.6900 -79.2306 141° Southeast 494 568 36,900  Descending Miami Center
10:36AM 26.5869 -79.1311 139° Southeast 494 568 37,000  Climbing Miami Center
10:37AM 26.4819 -79.0339 140° Southeast 489 563 37,000 -60 Level Miami Center
10:38AM 26.3808 -78.9414 141° Southeast 491 565 36,900  Descending Miami Center
10:39AM 26.2758 -78.8425 140° Southeast 491 565 37,000  Climbing Miami Center
10:40AM 26.1747 -78.7458 139° Southeast 491 565 36,900  Descending Miami Center
10:41AM 26.0692 -78.6517 141° Southeast 491 565 37,000  Climbing Miami Center
10:42AM 25.9658 -78.5575 141° Southeast 491 565 37,000  Level Miami Center
10:43AM 25.8603 -78.4661 142° Southeast 491 565 37,000  Level Miami Center
10:44AM 25.7633 -78.3678 138° Southeast 486 559 37,000  Level Miami Center
10:45AM 25.6575 -78.2719 141° Southeast 486 559 37,000  Level Miami Center
10:46AM 25.5539 -78.1786 141° Southeast 491 565 37,000  Level Miami Center
10:47AM 25.4483 -78.0808 140° Southeast 496 571 37,000  Level Miami Center
10:48AM 25.3425 -77.9856 141° Southeast 496 571 37,000  Level Miami Center
10:49AM 25.2386 -77.8928 141° Southeast 496 571 37,000  Level Miami Center
10:50AM 25.1347 -77.7978 140° Southeast 496 571 37,000  Level Miami Center
10:51AM 25.0308 -77.7075 142° Southeast 490 564 37,000  Level Miami Center
10:52AM 24.9228 -77.6128 142° Southeast 490 564 37,000  Level Miami Center
10:53AM 24.8269 -77.5253 140° Southeast 490 564 37,000  Level Miami Center
10:54AM 24.7250 -77.4308 140° Southeast 490 564 37,000  Level Miami Center
10:55AM 24.6250 -77.3389 140° Southeast 490 564 37,000  Level Miami Center
10:56AM 24.5206 -77.2472 141° Southeast 485 558 37,000  Level Miami Center
10:57AM 24.4164 -77.1533 141° Southeast 485 558 37,000  Level Miami Center
10:58AM 24.3183 -77.0594 139° Southeast 485 558 37,000  Level Miami Center
10:59AM 24.2161 -76.9636 139° Southeast 480 552 37,000  Level Miami Center
11:00AM 24.1200 -76.8703 138° Southeast 480 552 37,000  Level Miami Center
11:01AM 24.0175 -76.7747 140° Southeast 480 552 37,000  Level Miami Center
11:02AM 23.9169 -76.6794 139° Southeast 480 552 37,000  Level Miami Center
11:03AM 23.8144 -76.5839 140° Southeast 480 552 37,000  Level Miami Center
11:04AM 23.7161 -76.4911 139° Southeast 480 552 37,000  Level Miami Center
11:05AM 23.6156 -76.3964 139° Southeast 480 552 37,000  Level Miami Center
11:06AM 23.5150 -76.3014 139° Southeast 480 552 37,000  Level Miami Center
11:07AM 23.4164 -76.2092 139° Southeast 480 552 37,000  Level Miami Center
11:08AM 23.3031 -76.1056 140° Southeast 480 552 37,000  Level Miami Center
11:09AM 23.2000 -76.0089 139° Southeast 480 552 37,000  Level Miami Center
11:10AM 23.0992 -75.9147 139° Southeast 480 552 37,000  Level Miami Center
11:11AM 22.9961 -75.8208 140° Southeast 480 552 37,000  Level Miami Center
11:12AM 22.8953 -75.7247 139° Southeast 480 552 37,000  Level Miami Center
11:13AM 22.7919 -75.6286 139° Southeast 480 552 37,000  Level Miami Center
11:14AM 22.6911 -75.5372 140° Southeast 480 552 37,000  Level Miami Center
11:15AM 22.5878 -75.4417 140° Southeast 480 552 37,000  Level Miami Center
11:16AM 22.4867 -75.3483 140° Southeast 480 552 37,000  Level Miami Center
11:17AM 22.3811 -75.2531 140° Southeast 480 552 37,000  Level Miami Center
11:18AM 22.2797 -75.1578 139° Southeast 480 552 37,000  Level Miami Center
11:19AM 22.1764 -75.0647 140° Southeast 480 552 37,000 -300 Level Miami Center
11:20AM 22.0689 -74.9811 144° Southeast 480 552 36,500 -720 Descending Miami Center
11:21AM 21.9592 -74.8956 144° Southeast 480 552 35,600 -900 Descending Miami Center
11:22AM 21.8475 -74.8167 147° Southeast 480 552 34,700 -960 Descending Miami Center
11:23AM 21.7397 -74.7311 144° Southeast 480 552 33,700 -960 Descending Miami Center
11:24AM 21.6319 -74.6411 142° Southeast 490 564 32,800 -960 Descending Miami Center
11:25AM 21.5200 -74.5561 145° Southeast 490 564 31,800 -1,020 Descending Miami Center
11:26AM 21.4081 -74.4733 145° Southeast 485 558 30,800 -960 Descending Miami Center
11:27AM 21.2961 -74.3883 145° Southeast 485 558 29,900 -960 Descending Miami Center
11:28AM 21.1864 -74.3103 146° Southeast 485 558 28,900 -960 Descending Miami Center
11:29AM 21.0742 -74.2256 145° Southeast 490 564 28,000 -960 Descending Miami Center
11:30AM 20.9622 -74.1389 144° Southeast 495 570 27,000 -1,560 Descending Miami Center
11:31AM 20.8500 -74.0567 146° Southeast 502 578 24,900 -2,520 Descending Miami Center
11:32AM 20.7400 -73.9725 144° Southeast 494 568 22,000 -2,820 Descending Miami Center
11:33AM 20.6383 -73.8969 145° Southeast 474 545 19,300 -2,700 Descending Miami Center
11:34AM 20.5411 -73.8306 147° Southeast 443 510 16,700 -2,640 Descending Miami Center
11:36AM 20.4413 -73.9921 245° Southwest  Level FlightAware Approximate
11:43AM 20.0840 -74.7983 248° West  Level FlightAware Approximate
11:44AM 20.0233 -74.9081 239° Southwest  Level FlightAware Approximate
11:45AM 19.9721 -75.0225 242° Southwest  Level FlightAware Approximate
11:46AM 19.9243 -75.1392 247° West  Level FlightAware Approximate
11:47AM 19.9000 -75.2000 247° West  Level FlightAware Approximate
11:48AM 19.9065 -75.2071 247° West  Level Estimated
11:49AM 19.9065 -75.2071 247° West  Level Estimated
11:50AM 19.9065 -75.2071 247° West  Level Estimated
11:51AM 19.9065 -75.2071 247° West  Level Estimated
11:52AM 19.9065 -75.2071 247° West  Level Estimated
11:53AM 19.9065 -75.2071 247° West  Level Estimated
11:54AM 19.9065 -75.2071 247° West  Level Estimated
11:55AM 19.9065 -75.2071 247° West  Level Estimated
11:56AM 19.9065 -75.2071 247° West  Level Estimated
11:57AM 19.9065 -75.2071 247° West  Level Estimated
11:58AM 19.9065 -75.2071 247° West  Level Estimated
11:59AM 19.9065 -75.2071 247° West  Level Estimated
12:00PM 19.9065 -75.2071 247° West  Level Estimated
12:01PM 19.9065 -75.2071 247° West  Level Estimated
12:02PM 19.9065 -75.2071 247° West  Level Estimated
12:03PM 19.9065 -75.2071 247° West  Level Estimated
12:04PM 19.9065 -75.2071 247° West  Level Estimated